Time;durP1;ratioP1;P1;durP2;ratioP2;P2;SDS_P1;SDS_P2;PMS_P1;PMS_P2;Temp;Humidity;BMP_temperature;BMP_pressure;BME280_temperature;BME280_humidity;BME280_pressure;Samples;Min_cycle;Max_cycle;Signal;HPM_P1;HPM_P2
2023/09/05 04:14:45;;;;;;;;;;;;;;;23.06;65.90;97256.59;4245920;27;10375;-71
2023/09/05 04:16:51;;;;;;;;;;;;;;;23.35;64.97;97257.03;4237857;27;5612;-72
2023/09/05 04:18:54;;;;;;;;;;;;;;;23.53;64.73;97261.94;4232827;27;6621;-71
2023/09/05 04:20:57;;;;;;;;;;;;;;;23.69;64.44;97267.44;4248455;27;7425;-71
2023/09/05 04:23:00;;;;;;;;;;;;;;;23.79;63.84;97257.47;4239791;27;5761;-71
2023/09/05 04:25:03;;;;;;;;;;;;;;;23.89;63.63;97258.53;4248209;27;5601;-71
2023/09/05 04:27:05;;;;;;;;;;;;;;;23.97;62.96;97256.13;4245905;27;5633;-72
2023/09/05 04:29:08;;;;;;;;;;;;;;;24.03;63.11;97260.47;4248350;27;5836;-72
2023/09/05 04:31:18;;;;;;;;;;;;;;;24.09;62.76;97254.00;4235820;27;5657;-71
2023/09/05 04:33:21;;;;;;;;;;;;;;;24.16;62.74;97256.44;4241551;27;5807;-71
2023/09/05 04:35:24;;;;;;;;;;;;;;;24.20;62.59;97245.91;4246858;27;5598;-71
2023/09/05 04:37:27;;;;;;;;;;;;;;;24.24;62.24;97255.91;4246055;27;5709;-71
2023/09/05 04:39:29;;;;;;;;;;;;;;;24.27;62.09;97249.97;4247936;27;5633;-71
2023/09/05 04:41:33;;;;;;;;;;;;;;;24.31;62.11;97264.59;4248000;27;5704;-71
2023/09/05 04:43:36;;;;;;;;;;;;;;;24.34;61.98;97260.53;4241405;27;5537;-71
2023/09/05 04:45:39;;;;;;;;;;;;;;;24.35;61.90;97262.97;4247496;27;5659;-71
2023/09/05 04:47:43;;;;;;;;;;;;;;;24.37;61.32;97266.22;4248159;27;5797;-71
2023/09/05 04:49:46;;;;;;;;;;;;;;;24.37;61.64;97255.41;4248197;27;6321;-71
2023/09/05 04:51:49;;;;;;;;;;;;;;;24.37;61.32;97258.13;4212811;28;5631;-70
2023/09/05 04:53:52;;;;;;;;;;;;;;;24.33;61.23;97259.72;4241432;27;5614;-71
2023/09/05 04:55:58;;;;;;;;;;;;;;;24.31;60.72;97261.88;4238623;27;5628;-73
2023/09/05 04:58:01;;;;;;;;;;;;;;;24.28;60.78;97262.41;4247782;27;5647;-73
2023/09/05 05:00:05;;;;;;;;;;;;;;;24.24;60.43;97264.03;4239128;27;5819;-73
2023/09/05 05:02:09;;;;;;;;;;;;;;;24.21;60.84;97272.66;4247631;27;5610;-73
2023/09/05 05:04:14;;;;;;;;;;;;;;;24.21;60.77;97278.03;4245711;27;5834;-73
2023/09/05 05:06:17;;;;;;;;;;;;;;;24.24;60.56;97274.81;4235652;27;7803;-73
2023/09/05 05:08:20;;;;;;;;;;;;;;;24.29;60.70;97274.00;4234393;27;7070;-72
2023/09/05 05:10:23;;;;;;;;;;;;;;;24.25;60.03;97271.03;4238120;27;5736;-73
2023/09/05 05:12:26;;;;;;;;;;;;;;;24.21;60.11;97278.03;4241368;27;5778;-73
2023/09/05 05:14:29;;;;;;;;;;;;;;;24.23;59.96;97278.59;4241999;27;5602;-72
2023/09/05 05:16:32;;;;;;;;;;;;;;;24.25;59.79;97283.75;4235204;28;5754;-73
2023/09/05 05:18:35;;;;;;;;;;;;;;;24.27;59.93;97282.38;4228883;28;6341;-73
2023/09/05 05:20:38;;;;;;;;;;;;;;;24.28;59.91;97285.91;4228581;28;5740;-72
2023/09/05 05:22:41;;;;;;;;;;;;;;;24.27;59.64;97287.78;4227904;28;5612;-73
2023/09/05 05:24:44;;;;;;;;;;;;;;;24.20;59.52;97276.44;4227101;28;6375;-73
2023/09/05 05:26:47;;;;;;;;;;;;;;;24.19;59.33;97280.22;4222403;28;6311;-73
2023/09/05 05:28:50;;;;;;;;;;;;;;;24.23;59.34;97286.69;4218121;27;6521;-68
2023/09/05 05:30:53;;;;;;;;;;;;;;;24.23;59.58;97283.97;4223762;27;5955;-66
2023/09/05 05:32:55;;;;;;;;;;;;;;;24.20;58.82;97292.63;4223847;28;6396;-66
2023/09/05 05:34:58;;;;;;;;;;;;;;;24.19;59.26;97282.09;4227306;28;5747;-63
2023/09/05 05:37:03;;;;;;;;;;;;;;;24.16;59.01;97286.16;4222229;28;5777;-63
2023/09/05 05:39:06;;;;;;;;;;;;;;;24.16;58.72;97285.34;4226951;28;5618;-62
2023/09/05 05:41:10;;;;;;;;;;;;;;;24.17;58.66;97286.97;4227426;28;5818;-63
2023/09/05 05:43:12;;;;;;;;;;;;;;;24.20;58.90;97281.81;4227569;27;5826;-64
2023/09/05 05:45:15;;;;;;;;;;;;;;;24.22;58.68;97274.25;4227339;27;5673;-62
2023/09/05 05:47:18;;;;;;;;;;;;;;;24.24;58.48;97280.22;4227127;28;5602;-62
2023/09/05 05:49:21;;;;;;;;;;;;;;;24.25;58.45;97267.53;4225724;28;5844;-61
2023/09/05 05:51:25;;;;;;;;;;;;;;;24.25;58.21;97270.25;4228565;28;5728;-60
2023/09/05 05:53:30;;;;;;;;;;;;;;;24.27;58.43;97279.69;4235760;28;6301;-61
2023/09/05 05:55:32;;;;;;;;;;;;;;;24.28;58.31;97280.50;4227548;28;5310;-62
2023/09/05 05:57:35;;;;;;;;;;;;;;;24.30;58.11;97276.47;4235737;28;6355;-63
2023/09/05 05:59:40;;;;;;;;;;;;;;;24.27;57.70;97271.59;4225831;27;5796;-62
2023/09/05 06:01:43;;;;;;;;;;;;;;;24.24;57.31;97266.72;4219892;28;5682;-63
2023/09/05 06:03:46;;;;;;;;;;;;;;;24.24;57.82;97266.72;4231136;28;5602;-62
2023/09/05 06:05:50;;;;;;;;;;;;;;;24.24;57.58;97266.72;4234518;28;5616;-62
2023/09/05 06:07:53;;;;;;;;;;;;;;;24.25;57.49;97264.84;4230294;28;5751;-61
2023/09/05 06:09:57;;;;;;;;;;;;;;;24.25;57.39;97272.94;4234648;28;5629;-62
2023/09/05 06:12:00;;;;;;;;;;;;;;;24.25;57.45;97276.44;4230257;28;6463;-61
2023/09/05 06:14:02;;;;;;;;;;;;;;;24.24;56.69;97271.31;4225856;28;5639;-61
2023/09/05 06:16:05;;;;;;;;;;;;;;;24.20;57.28;97270.22;4233968;28;5639;-61
2023/09/05 06:18:09;;;;;;;;;;;;;;;24.23;57.18;97281.28;4224658;28;5656;-62
2023/09/05 06:20:13;;;;;;;;;;;;;;;24.26;56.93;97272.66;4232429;27;5590;-60
2023/09/05 06:22:16;;;;;;;;;;;;;;;24.31;56.73;97277.28;4229361;28;5605;-61
2023/09/05 06:24:20;;;;;;;;;;;;;;;24.32;57.05;97268.91;4227938;28;5677;-62
2023/09/05 06:26:24;;;;;;;;;;;;;;;24.35;56.73;97272.94;4229069;28;5745;-62
2023/09/05 06:28:27;;;;;;;;;;;;;;;24.38;56.41;97275.13;4223269;28;5945;-62
2023/09/05 06:30:30;;;;;;;;;;;;;;;24.39;56.69;97282.97;4216037;28;5633;-62
2023/09/05 06:32:33;;;;;;;;;;;;;;;24.39;56.36;97274.88;4226212;28;5701;-62
2023/09/05 06:34:36;;;;;;;;;;;;;;;24.42;56.18;97281.59;4226223;28;5752;-63
2023/09/05 06:36:39;;;;;;;;;;;;;;;24.44;56.29;97275.94;4234458;28;7049;-63
2023/09/05 06:38:43;;;;;;;;;;;;;;;24.46;55.74;97281.88;4229936;28;5605;-62
2023/09/05 06:40:46;;;;;;;;;;;;;;;24.48;56.02;97285.13;4233775;28;6295;-63
2023/09/05 06:42:51;;;;;;;;;;;;;;;24.49;55.67;97278.66;4225776;28;5079;-62
2023/09/05 06:44:53;;;;;;;;;;;;;;;24.51;55.59;97280.00;4232855;27;5648;-62
2023/09/05 06:46:56;;;;;;;;;;;;;;;24.51;55.41;97284.59;4228010;28;5613;-62
2023/09/05 06:48:59;;;;;;;;;;;;;;;24.54;55.45;97281.34;4226351;28;5749;-63
2023/09/05 06:51:02;;;;;;;;;;;;;;;24.54;55.13;97281.34;4234072;28;5828;-62
2023/09/05 06:53:05;;;;;;;;;;;;;;;24.56;55.46;97284.56;4234474;28;5079;-63
2023/09/05 06:55:07;;;;;;;;;;;;;;;24.58;55.34;97283.25;4234253;28;5613;-62
2023/09/05 06:57:10;;;;;;;;;;;;;;;24.59;55.05;97279.47;4234280;28;5586;-62
2023/09/05 06:59:17;;;;;;;;;;;;;;;24.60;55.00;97285.69;4233992;28;5780;-60
2023/09/05 07:01:22;;;;;;;;;;;;;;;24.62;55.09;97283.50;4234307;28;5644;-62
2023/09/05 07:03:26;;;;;;;;;;;;;;;24.64;54.84;97274.03;4234097;28;5080;-61
2023/09/05 07:05:29;;;;;;;;;;;;;;;24.63;55.11;97268.91;4233875;28;5858;-62
2023/09/05 07:07:32;;;;;;;;;;;;;;;24.65;55.23;97274.84;4234550;28;5071;-62
2023/09/05 07:09:35;;;;;;;;;;;;;;;24.66;55.02;97279.16;4233943;28;5670;-62
2023/09/05 07:11:38;;;;;;;;;;;;;;;24.68;55.17;97277.00;4230534;28;5705;-62
2023/09/05 07:13:41;;;;;;;;;;;;;;;24.68;54.83;97271.59;4233791;28;5700;-62
2023/09/05 07:15:45;;;;;;;;;;;;;;;24.66;55.11;97271.06;4216983;28;5630;-62
2023/09/05 07:17:47;;;;;;;;;;;;;;;24.67;54.75;97268.09;4217937;28;5521;-62
2023/09/05 07:19:50;;;;;;;;;;;;;;;24.67;54.75;97270.78;4233481;28;7213;-62
2023/09/05 07:21:53;;;;;;;;;;;;;;;24.68;55.01;97275.09;4225936;28;5772;-62
2023/09/05 07:23:57;;;;;;;;;;;;;;;24.69;55.20;97273.25;4234336;28;5613;-62
2023/09/05 07:26:04;;;;;;;;;;;;;;;24.71;54.84;97275.66;4234291;28;6491;-62
2023/09/05 07:28:07;;;;;;;;;;;;;;;24.73;55.04;97279.72;4234459;28;5601;-62
2023/09/05 07:30:11;;;;;;;;;;;;;;;24.76;54.96;97281.06;4224826;28;5771;-62
2023/09/05 07:32:15;;;;;;;;;;;;;;;24.78;54.58;97281.59;4225974;28;5736;-61
2023/09/05 07:34:18;;;;;;;;;;;;;;;24.80;54.81;97280.22;4232708;28;5754;-62
2023/09/05 07:36:21;;;;;;;;;;;;;;;24.80;54.77;97277.53;4234360;28;5606;-62
2023/09/05 07:38:24;;;;;;;;;;;;;;;24.81;54.81;97281.88;4233397;28;5602;-62
2023/09/05 07:40:28;;;;;;;;;;;;;;;24.81;54.67;97278.38;4233763;28;5610;-62
2023/09/05 07:42:30;;;;;;;;;;;;;;;24.80;54.54;97284.81;4226991;28;5818;-62
2023/09/05 07:44:33;;;;;;;;;;;;;;;24.80;54.39;97291.03;4230631;27;5788;-63
2023/09/05 07:46:36;;;;;;;;;;;;;;;24.80;54.74;97282.13;4232515;28;5182;-63
2023/09/05 07:48:40;;;;;;;;;;;;;;;24.81;54.57;97284.59;4229816;28;6306;-62
2023/09/05 07:50:43;;;;;;;;;;;;;;;24.83;54.68;97285.13;4217764;28;5798;-63
2023/09/05 07:52:47;;;;;;;;;;;;;;;24.85;54.31;97291.06;4228631;28;5095;-63
2023/09/05 07:54:49;;;;;;;;;;;;;;;24.85;54.26;97285.66;4229081;28;5255;-62
2023/09/05 07:56:52;;;;;;;;;;;;;;;24.84;54.46;97286.72;4227537;28;5604;-62
2023/09/05 07:58:55;;;;;;;;;;;;;;;24.86;54.16;97289.16;4232338;28;5595;-62
2023/09/05 08:00:59;;;;;;;;;;;;;;;24.85;54.33;97285.66;4231817;28;5779;-61
2023/09/05 08:03:03;;;;;;;;;;;;;;;24.86;54.21;97291.88;4233472;28;5677;-61
2023/09/05 08:05:07;;;;;;;;;;;;;;;24.87;54.12;97290.78;4232607;28;5734;-68
2023/09/05 08:07:11;;;;;;;;;;;;;;;24.87;54.07;97291.59;4225448;28;5918;-68
2023/09/05 08:09:14;;;;;;;;;;;;;;;24.87;54.22;97291.59;4233359;28;6360;-68
2023/09/05 08:11:16;;;;;;;;;;;;;;;24.86;54.47;97295.38;4232332;27;5781;-68
2023/09/05 08:13:20;;;;;;;;;;;;;;;24.86;54.20;97292.69;4224102;28;5751;-68
2023/09/05 08:15:22;;;;;;;;;;;;;;;24.85;54.32;97290.25;4233334;27;5750;-66
2023/09/05 08:17:25;;;;;;;;;;;;;;;24.85;54.18;97285.66;4233506;28;5648;-68
2023/09/05 08:19:28;;;;;;;;;;;;;;;24.85;54.28;97295.66;4233201;28;5605;-68
2023/09/05 08:21:33;;;;;;;;;;;;;;;24.84;54.57;97289.44;4233343;28;5647;-68
2023/09/05 08:23:35;;;;;;;;;;;;;;;24.84;54.29;97294.84;4233696;28;5601;-68
2023/09/05 08:25:38;;;;;;;;;;;;;;;24.88;54.37;97292.41;4233770;28;5598;-69
2023/09/05 08:27:42;;;;;;;;;;;;;;;24.87;54.41;97291.59;4233786;28;5594;-67
2023/09/05 08:29:45;;;;;;;;;;;;;;;24.87;54.53;97290.78;4228431;28;5612;-67
2023/09/05 08:31:47;;;;;;;;;;;;;;;24.80;54.52;97287.53;4225079;28;5660;-68
2023/09/05 08:33:50;;;;;;;;;;;;;;;24.77;54.76;97293.50;4232293;28;5741;-67
2023/09/05 08:35:54;;;;;;;;;;;;;;;24.78;54.96;97290.50;4233614;27;5690;-67
2023/09/05 08:38:02;;;;;;;;;;;;;;;24.81;54.74;97290.00;4233704;28;6280;-67
2023/09/05 08:40:07;;;;;;;;;;;;;;;24.84;55.00;97286.72;4233752;28;5103;-67
2023/09/05 08:42:11;;;;;;;;;;;;;;;24.87;54.91;97280.78;4233315;28;5754;-68
2023/09/05 08:44:14;;;;;;;;;;;;;;;24.88;54.64;97285.09;4232399;28;5747;-68
2023/09/05 08:46:19;;;;;;;;;;;;;;;24.90;54.94;97282.13;4233635;28;5663;-69
2023/09/05 08:48:22;;;;;;;;;;;;;;;24.90;55.08;97285.63;4232787;28;5598;-68
2023/09/05 08:50:26;;;;;;;;;;;;;;;24.92;54.87;97267.25;4234056;28;5590;-68
2023/09/05 08:52:32;;;;;;;;;;;;;;;24.93;54.85;97277.00;4236446;28;5729;-68
2023/09/05 08:54:37;;;;;;;;;;;;;;;24.95;54.79;97274.81;4235675;28;5640;-69
2023/09/05 08:56:40;;;;;;;;;;;;;;;24.93;54.69;97271.59;4230275;28;5700;-68
2023/09/05 08:58:43;;;;;;;;;;;;;;;24.93;54.95;97266.16;4226503;28;5656;-68
2023/09/05 09:00:46;;;;;;;;;;;;;;;24.98;55.06;97263.44;4233810;28;5647;-68
2023/09/05 09:02:49;;;;;;;;;;;;;;;25.02;54.71;97263.72;4234386;28;5613;-68
2023/09/05 09:04:56;;;;;;;;;;;;;;;25.05;54.79;97260.50;4229718;28;5612;-68
2023/09/05 09:06:59;;;;;;;;;;;;;;;25.07;55.01;97260.22;4219662;28;5600;-68
2023/09/05 09:09:03;;;;;;;;;;;;;;;25.08;54.61;97256.44;4233272;28;5986;-68
2023/09/05 09:11:09;;;;;;;;;;;;;;;25.09;54.53;97255.34;4236238;28;5605;-68
2023/09/05 09:13:16;;;;;;;;;;;;;;;25.07;54.84;97255.63;4229336;28;5833;-68
2023/09/05 09:15:20;;;;;;;;;;;;;;;25.07;54.63;97262.94;4234957;28;6347;-68
2023/09/05 09:17:23;;;;;;;;;;;;;;;25.06;54.70;97253.19;4236379;28;5651;-68
2023/09/05 09:19:29;;;;;;;;;;;;;;;25.05;54.82;97251.56;4225009;28;5667;-68
2023/09/05 09:21:33;;;;;;;;;;;;;;;25.05;55.03;97256.97;4235941;27;5852;-68
2023/09/05 09:23:36;;;;;;;;;;;;;;;25.04;54.91;97253.47;4235795;28;5731;-68
2023/09/05 09:25:47;;;;;;;;;;;;;;;25.06;54.65;97250.50;4235694;27;5710;-68
2023/09/05 09:27:57;;;;;;;;;;;;;;;25.05;54.52;97246.97;4235072;27;5630;-68
2023/09/05 09:30:00;;;;;;;;;;;;;;;25.08;54.59;97249.13;4229640;28;5628;-71
2023/09/05 09:32:05;;;;;;;;;;;;;;;25.10;54.66;97243.44;4230350;28;5643;-66
2023/09/05 09:34:09;;;;;;;;;;;;;;;25.11;54.63;97245.84;4234538;28;5742;-66
2023/09/05 09:36:15;;;;;;;;;;;;;;;25.15;54.87;97238.03;4233112;27;5790;-66
2023/09/05 09:38:17;;;;;;;;;;;;;;;25.19;54.54;97244.50;4235871;27;6435;-66
2023/09/05 09:40:21;;;;;;;;;;;;;;;25.21;54.68;97253.13;4232462;28;5623;-66
2023/09/05 09:42:24;;;;;;;;;;;;;;;25.22;54.79;97238.53;4234229;27;5676;-66
2023/09/05 09:44:30;;;;;;;;;;;;;;;25.24;54.46;97236.34;4237754;27;5602;-65
2023/09/05 09:46:33;;;;;;;;;;;;;;;25.28;54.69;97237.44;4233617;28;5773;-66
2023/09/05 09:48:37;;;;;;;;;;;;;;;25.29;54.71;97241.75;4235811;28;5730;-66
2023/09/05 09:50:40;;;;;;;;;;;;;;;25.31;54.65;97239.56;4235186;28;5771;-66
2023/09/05 09:52:46;;;;;;;;;;;;;;;25.31;54.40;97239.56;4235691;28;5622;-66
2023/09/05 09:54:53;;;;;;;;;;;;;;;25.32;54.70;97233.06;4235624;28;6472;-66
2023/09/05 09:57:00;;;;;;;;;;;;;;;25.33;54.42;97225.75;4233962;28;6712;-66
2023/09/05 09:59:04;;;;;;;;;;;;;;;25.35;54.45;97232.50;4234367;28;5115;-66
2023/09/05 10:01:11;;;;;;;;;;;;;;;25.35;54.61;97213.56;4235293;28;5706;-66
2023/09/05 10:03:15;;;;;;;;;;;;;;;25.37;54.53;97208.72;4235369;28;5605;-67
2023/09/05 10:05:19;;;;;;;;;;;;;;;25.37;54.37;97214.13;4226815;28;5186;-65
2023/09/05 10:07:23;;;;;;;;;;;;;;;25.38;54.38;97212.22;4239365;27;6260;-65
2023/09/05 10:09:30;;;;;;;;;;;;;;;25.37;54.25;97218.69;4227285;27;5667;-66
2023/09/05 10:11:34;;;;;;;;;;;;;;;25.38;54.10;97210.31;4226254;28;5685;-65
2023/09/05 10:13:39;;;;;;;;;;;;;;;25.38;54.20;97207.63;4234430;28;5716;-65
2023/09/05 10:15:43;;;;;;;;;;;;;;;25.41;54.42;97200.84;4235617;28;5672;-65
2023/09/05 10:17:48;;;;;;;;;;;;;;;25.42;54.48;97203.25;4235557;28;5657;-66
2023/09/05 10:19:51;;;;;;;;;;;;;;;25.45;54.51;97200.00;4235292;28;6176;-66
2023/09/05 10:21:56;;;;;;;;;;;;;;;25.47;54.29;97202.41;4235553;28;5850;-66
2023/09/05 10:24:00;;;;;;;;;;;;;;;25.47;54.23;97195.09;4235601;28;5602;-67
2023/09/05 10:26:04;;;;;;;;;;;;;;;25.48;54.17;97196.75;4235682;28;5598;-67
2023/09/05 10:28:07;;;;;;;;;;;;;;;25.50;54.47;97194.56;4235433;28;6560;-67
2023/09/05 10:30:11;;;;;;;;;;;;;;;25.51;54.43;97188.06;4235615;28;5768;-67
2023/09/05 10:32:18;;;;;;;;;;;;;;;25.53;54.49;97185.88;4235476;28;5594;-67
2023/09/05 10:34:31;;;;;;;;;;;;;;;25.54;54.38;97187.50;4234927;28;5598;-66
2023/09/05 10:36:41;;;;;;;;;;;;;;;25.57;54.33;97182.59;4235222;28;5602;-67
2023/09/05 10:38:55;;;;;;;;;;;;;;;25.57;54.57;97172.59;4235521;28;5613;-69
2023/09/05 10:40:59;;;;;;;;;;;;;;;25.62;54.48;97183.41;4235448;28;5785;-66
2023/09/05 10:43:04;;;;;;;;;;;;;;;25.64;54.29;97173.09;4235335;28;7642;-66
2023/09/05 10:45:31;;;;;;;;;;;;;;;25.65;54.41;97173.91;4235431;28;5602;-66
2023/09/05 10:47:36;;;;;;;;;;;;;;;25.65;54.59;97176.59;4226506;28;5606;-66
2023/09/05 10:49:46;;;;;;;;;;;;;;;25.67;54.24;97174.44;4235002;28;5691;-66
2023/09/05 10:52:16;;;;;;;;;;;;;;;25.68;54.30;97173.34;4227584;28;5647;-66
2023/09/05 10:54:30;;;;;;;;;;;;;;;25.69;54.25;97170.38;4235204;28;5701;-66
2023/09/05 10:56:41;;;;;;;;;;;;;;;25.70;54.47;97168.47;4235019;28;5738;-66
2023/09/05 10:58:47;;;;;;;;;;;;;;;25.71;54.35;97164.66;4235067;28;5652;-66
2023/09/05 11:00:50;;;;;;;;;;;;;;;25.71;54.22;97161.97;4234924;28;6448;-66
2023/09/05 11:02:55;;;;;;;;;;;;;;;25.73;54.42;97146.28;4234568;28;6354;-67
2023/09/05 11:05:01;;;;;;;;;;;;;;;25.73;54.45;97147.06;4234711;28;5648;-67
2023/09/05 11:07:09;;;;;;;;;;;;;;;25.77;54.27;97145.41;4235059;28;5648;-67
2023/09/05 11:09:12;;;;;;;;;;;;;;;25.80;54.17;97146.75;4234776;28;5750;-67
2023/09/05 11:11:24;;;;;;;;;;;;;;;25.80;54.56;97139.41;4234906;28;5597;-67
2023/09/05 11:13:28;;;;;;;;;;;;;;;25.81;54.33;97137.53;4234131;28;5639;-67
2023/09/05 11:15:32;;;;;;;;;;;;;;;25.81;54.09;97129.41;4234639;28;5652;-67
2023/09/05 11:17:36;;;;;;;;;;;;;;;25.80;53.84;97134.00;4218949;28;5605;-67
2023/09/05 11:19:41;;;;;;;;;;;;;;;25.82;54.01;97125.59;4217564;28;5771;-67
2023/09/05 11:21:46;;;;;;;;;;;;;;;25.83;53.77;97124.53;4226383;28;5640;-67
2023/09/05 11:23:51;;;;;;;;;;;;;;;25.82;53.45;97117.47;4234684;28;5787;-67
2023/09/05 11:25:55;;;;;;;;;;;;;;;25.83;53.33;97119.94;4227507;28;5632;-67
2023/09/05 11:28:00;;;;;;;;;;;;;;;25.86;53.31;97113.13;4229184;28;5813;-67
2023/09/05 11:30:06;;;;;;;;;;;;;;;25.86;53.41;97109.63;4212033;28;5707;-67
2023/09/05 11:32:12;;;;;;;;;;;;;;;25.87;53.11;97103.91;4225815;28;5706;-66
2023/09/05 11:34:17;;;;;;;;;;;;;;;25.87;53.32;97101.19;4232776;28;6467;-67
2023/09/05 11:36:20;;;;;;;;;;;;;;;25.89;52.95;97098.19;4232675;28;5610;-67
2023/09/05 11:38:26;;;;;;;;;;;;;;;25.90;53.06;97100.63;4232746;28;5644;-68
2023/09/05 11:40:30;;;;;;;;;;;;;;;25.92;53.14;97094.91;4218809;28;5601;-67
2023/09/05 11:42:33;;;;;;;;;;;;;;;25.94;53.01;97098.97;4232612;28;5607;-67
2023/09/05 11:44:38;;;;;;;;;;;;;;;25.95;53.01;97092.47;4234003;28;5714;-66
2023/09/05 11:46:42;;;;;;;;;;;;;;;25.97;53.04;97098.41;4234111;28;5639;-67
2023/09/05 11:48:47;;;;;;;;;;;;;;;25.99;53.10;97090.00;4234239;27;5590;-67
2023/09/05 11:50:50;;;;;;;;;;;;;;;25.99;52.72;97079.16;4215555;28;5720;-69
2023/09/05 11:52:53;;;;;;;;;;;;;;;25.99;52.71;97074.53;4229093;28;5790;-67
2023/09/05 11:54:58;;;;;;;;;;;;;;;26.02;52.70;97073.16;4234071;27;5612;-67
2023/09/05 11:57:02;;;;;;;;;;;;;;;26.03;52.67;97070.16;4223786;28;5612;-67
2023/09/05 11:59:05;;;;;;;;;;;;;;;26.04;52.55;97066.34;4227406;28;5657;-66
2023/09/05 12:01:08;;;;;;;;;;;;;;;26.06;52.68;97063.38;4233156;28;5611;-66
2023/09/05 12:03:14;;;;;;;;;;;;;;;26.05;52.78;97062.59;4227563;27;5780;-67
2023/09/05 12:05:19;;;;;;;;;;;;;;;26.06;52.61;97053.34;4216752;28;5745;-67
2023/09/05 12:07:24;;;;;;;;;;;;;;;26.07;52.57;97049.56;4230821;28;5110;-63
2023/09/05 12:09:30;;;;;;;;;;;;;;;26.09;52.57;97052.78;4232568;28;5598;-63
2023/09/05 12:11:34;;;;;;;;;;;;;;;26.11;52.63;97047.88;4233518;28;5582;-64
2023/09/05 12:13:38;;;;;;;;;;;;;;;26.11;52.95;97052.50;4224803;28;5582;-63
2023/09/05 12:15:45;;;;;;;;;;;;;;;26.10;52.45;97043.56;4232692;28;5663;-64
2023/09/05 12:17:48;;;;;;;;;;;;;;;26.10;52.38;97048.97;4233855;28;5709;-64
2023/09/05 12:19:53;;;;;;;;;;;;;;;26.12;52.47;97046.78;4231619;28;7222;-63
2023/09/05 12:21:56;;;;;;;;;;;;;;;26.16;52.26;97048.91;4231130;28;5728;-64
2023/09/05 12:24:20;;;;;;;;;;;;;;;26.17;52.39;97042.41;4233838;28;5727;-63
2023/09/05 12:28:58;;;;;;;;;;;;;;;26.18;52.25;97044.84;4265948;27;10305;-63
2023/09/05 12:31:08;;;;;;;;;;;;;;;26.19;52.25;97037.53;4265951;27;5842;-63
2023/09/05 12:33:12;;;;;;;;;;;;;;;26.20;52.27;97039.94;4265669;27;5582;-63
2023/09/05 12:35:15;;;;;;;;;;;;;;;26.20;52.33;97036.41;4265741;27;5725;-63
2023/09/05 12:37:18;;;;;;;;;;;;;;;26.19;52.14;97024.78;4265143;27;5677;-64
2023/09/05 12:39:20;;;;;;;;;;;;;;;26.22;52.12;97018.78;4265954;27;5663;-63
2023/09/05 12:41:23;;;;;;;;;;;;;;;26.24;52.13;97021.19;4266199;27;5578;-63
2023/09/05 12:43:26;;;;;;;;;;;;;;;26.26;52.01;97011.66;4247057;27;5310;-63
2023/09/05 12:45:32;;;;;;;;;;;;;;;26.29;51.95;97018.44;4265988;27;5590;-64
2023/09/05 12:47:35;;;;;;;;;;;;;;;26.31;51.94;97010.81;4265858;27;5582;-64
2023/09/05 12:49:38;;;;;;;;;;;;;;;26.31;51.62;97008.91;4265559;27;5672;-63
2023/09/05 12:51:41;;;;;;;;;;;;;;;26.33;51.87;97008.63;4265586;27;6429;-64
2023/09/05 12:53:44;;;;;;;;;;;;;;;26.34;52.13;97015.66;4264391;27;5577;-64
2023/09/05 12:55:48;;;;;;;;;;;;;;;26.35;51.82;97009.13;4265407;27;5736;-65
2023/09/05 12:57:53;;;;;;;;;;;;;;;26.39;51.85;97007.53;4265301;27;5582;-64
2023/09/05 12:59:57;;;;;;;;;;;;;;;26.42;51.91;97006.94;4265689;27;5579;-64
2023/09/05 13:02:02;;;;;;;;;;;;;;;26.46;51.85;97002.53;4265877;27;5590;-64
2023/09/05 13:04:06;;;;;;;;;;;;;;;26.47;51.74;96998.72;4265118;27;5593;-64
2023/09/05 13:06:08;;;;;;;;;;;;;;;26.50;51.76;96998.13;4265362;27;5607;-64
2023/09/05 13:08:11;;;;;;;;;;;;;;;26.51;51.64;97001.69;4264692;27;5795;-64
2023/09/05 13:10:14;;;;;;;;;;;;;;;26.51;51.76;96999.78;4264453;27;5574;-64
2023/09/05 13:12:17;;;;;;;;;;;;;;;26.51;51.83;96994.34;4263988;27;5778;-64
2023/09/05 13:14:20;;;;;;;;;;;;;;;26.53;51.48;96994.88;4265448;27;5586;-64
2023/09/05 13:16:23;;;;;;;;;;;;;;;26.52;51.72;96990.53;4265548;27;5594;-64
2023/09/05 13:18:27;;;;;;;;;;;;;;;26.52;51.68;96989.75;4265214;27;5594;-64
2023/09/05 13:20:32;;;;;;;;;;;;;;;26.53;51.62;96988.63;4265199;27;5593;-64
2023/09/05 13:22:35;;;;;;;;;;;;;;;26.54;51.43;96985.63;4264890;27;5688;-64
2023/09/05 13:24:38;;;;;;;;;;;;;;;26.54;51.43;96988.34;4265097;27;5824;-64
2023/09/05 13:26:41;;;;;;;;;;;;;;;26.55;51.55;96978.31;4264984;27;5607;-64
2023/09/05 13:28:44;;;;;;;;;;;;;;;26.56;51.55;96974.50;4260115;27;5674;-64
2023/09/05 13:30:46;;;;;;;;;;;;;;;26.55;51.32;96965.56;4261713;27;5681;-64
2023/09/05 13:32:49;;;;;;;;;;;;;;;26.56;51.18;96978.00;4262304;27;6276;-64
2023/09/05 13:34:53;;;;;;;;;;;;;;;26.57;51.38;96971.50;4234066;27;5609;-60
2023/09/05 13:36:57;;;;;;;;;;;;;;;26.58;51.34;96956.81;4252965;27;5723;-60
2023/09/05 13:39:00;;;;;;;;;;;;;;;26.60;51.07;96959.25;4255746;27;5575;-64
2023/09/05 13:41:03;;;;;;;;;;;;;;;26.63;51.06;96964.91;4253696;27;5804;-64
2023/09/05 13:43:06;;;;;;;;;;;;;;;26.65;51.13;96954.56;4254270;27;5602;-80
2023/09/05 13:45:09;;;;;;;;;;;;;;;26.68;51.04;96951.28;4252311;27;5730;-63
2023/09/05 13:47:12;;;;;;;;;;;;;;;26.70;50.76;96951.78;4242971;27;5780;-63
2023/09/05 13:49:15;;;;;;;;;;;;;;;26.70;50.86;96949.06;4248706;27;5645;-64
2023/09/05 13:51:21;;;;;;;;;;;;;;;26.74;50.77;96948.50;4241700;27;5122;-63
2023/09/05 13:53:24;;;;;;;;;;;;;;;26.75;50.90;96944.69;4242031;27;5704;-63
2023/09/05 13:55:29;;;;;;;;;;;;;;;26.75;50.69;96942.78;4241314;27;5669;-63
2023/09/05 13:57:32;;;;;;;;;;;;;;;26.76;50.65;96940.88;4243976;27;5702;-64
2023/09/05 13:59:35;;;;;;;;;;;;;;;26.77;50.94;96948.72;4247961;27;5609;-64
2023/09/05 14:01:38;;;;;;;;;;;;;;;26.76;50.79;96940.88;4241737;27;5692;-62
2023/09/05 14:03:41;;;;;;;;;;;;;;;26.79;50.66;96937.56;4249060;27;5813;-63
2023/09/05 14:05:44;;;;;;;;;;;;;;;26.80;50.69;96947.31;4243603;27;5597;-79
2023/09/05 14:07:48;;;;;;;;;;;;;;;26.80;50.54;96947.31;4244836;27;5605;-68
2023/09/05 14:09:51;;;;;;;;;;;;;;;26.81;50.74;96938.88;4244574;27;5595;-65
2023/09/05 14:11:54;;;;;;;;;;;;;;;26.82;50.54;96939.69;4251395;27;5590;-70
2023/09/05 14:13:57;;;;;;;;;;;;;;;26.81;50.88;96935.38;4247688;27;5610;-64
2023/09/05 14:15:59;;;;;;;;;;;;;;;26.82;50.67;96931.56;4246352;27;5867;-67
2023/09/05 14:18:04;;;;;;;;;;;;;;;26.81;50.75;96933.47;4243022;27;5800;-74
2023/09/05 14:20:08;;;;;;;;;;;;;;;26.83;50.47;96933.97;4245302;27;5591;-66
2023/09/05 14:22:11;;;;;;;;;;;;;;;26.84;50.76;96932.06;4247138;27;5735;-67
2023/09/05 14:24:15;;;;;;;;;;;;;;;26.86;50.60;96932.59;4250190;27;5649;-65
2023/09/05 14:26:18;;;;;;;;;;;;;;;26.91;50.63;96927.88;4240359;27;5601;-67
2023/09/05 14:28:24;;;;;;;;;;;;;;;26.91;50.63;96918.94;4240072;27;5467;-62
2023/09/05 14:30:27;;;;;;;;;;;;;;;26.93;50.50;96909.41;4245337;27;5665;-62
2023/09/05 14:32:30;;;;;;;;;;;;;;;26.95;50.63;96912.63;4243033;27;5802;-65
2023/09/05 14:34:33;;;;;;;;;;;;;;;26.93;50.47;96909.41;4245740;27;5741;-60
2023/09/05 14:36:36;;;;;;;;;;;;;;;26.93;50.52;96909.41;4241257;27;5679;-61
2023/09/05 14:38:39;;;;;;;;;;;;;;;26.91;50.48;96906.19;4229147;27;5677;-65
2023/09/05 14:40:44;;;;;;;;;;;;;;;26.92;50.57;96912.41;4246139;27;5142;-66
2023/09/05 14:42:46;;;;;;;;;;;;;;;26.92;50.75;96904.28;4243164;27;5649;-66
2023/09/05 14:44:49;;;;;;;;;;;;;;;26.94;50.63;96904.78;4239734;27;6362;-62
2023/09/05 14:46:52;;;;;;;;;;;;;;;26.97;50.60;96902.31;4240689;27;5613;-75
2023/09/05 14:48:56;;;;;;;;;;;;;;;26.99;50.64;96896.56;4250060;27;5781;-76
2023/09/05 14:50:59;;;;;;;;;;;;;;;26.98;50.57;96898.50;4241704;27;5681;-73
2023/09/05 14:53:02;;;;;;;;;;;;;;;26.97;50.61;96896.06;4240546;27;6366;-70
2023/09/05 14:55:09;;;;;;;;;;;;;;;26.97;50.56;96898.78;4246594;27;5689;-70
2023/09/05 14:57:13;;;;;;;;;;;;;;;26.97;50.71;96898.78;4239591;27;5700;-65
2023/09/05 14:59:15;;;;;;;;;;;;;;;26.98;50.70;96895.78;4237759;27;5808;-69
2023/09/05 15:01:19;;;;;;;;;;;;;;;26.99;50.70;96886.53;4241217;27;5792;-68
2023/09/05 15:03:21;;;;;;;;;;;;;;;27.01;50.62;96888.13;4245233;27;5668;-64
2023/09/05 15:05:25;;;;;;;;;;;;;;;27.02;50.68;96877.03;4237057;27;5724;-61
2023/09/05 15:07:28;;;;;;;;;;;;;;;27.06;50.68;96880.75;4244597;27;5657;-58
2023/09/05 15:09:32;;;;;;;;;;;;;;;27.08;50.71;96877.75;4242285;27;5653;-66
2023/09/05 15:11:35;;;;;;;;;;;;;;;27.10;50.71;96881.78;4243667;27;5618;-66